sensor_id;sensor_type;location;lat;lon;timestamp;P1;durP1;ratioP1;P2;durP2;ratioP2
2896;SDS011;1458;49.728;9.228;2022-08-24T00:01:34;6.90;;;6.80;;
2896;SDS011;1458;49.728;9.228;2022-08-24T00:04:02;6.80;;;6.70;;
2896;SDS011;1458;49.728;9.228;2022-08-24T00:06:30;7.00;;;6.90;;
2896;SDS011;1458;49.728;9.228;2022-08-24T00:08:57;7.17;;;7.07;;
2896;SDS011;1458;49.728;9.228;2022-08-24T00:11:26;6.80;;;6.70;;
2896;SDS011;1458;49.728;9.228;2022-08-24T00:13:54;6.53;;;6.53;;
2896;SDS011;1458;49.728;9.228;2022-08-24T00:16:22;6.50;;;6.50;;
2896;SDS011;1458;49.728;9.228;2022-08-24T00:18:51;6.60;;;6.60;;
2896;SDS011;1458;49.728;9.228;2022-08-24T00:21:20;6.63;;;6.60;;
2896;SDS011;1458;49.728;9.228;2022-08-24T00:23:50;6.50;;;6.50;;
2896;SDS011;1458;49.728;9.228;2022-08-24T00:26:17;6.30;;;6.30;;
2896;SDS011;1458;49.728;9.228;2022-08-24T00:28:45;6.30;;;6.30;;
2896;SDS011;1458;49.728;9.228;2022-08-24T00:31:15;6.30;;;6.30;;
2896;SDS011;1458;49.728;9.228;2022-08-24T00:33:44;6.10;;;6.10;;
2896;SDS011;1458;49.728;9.228;2022-08-24T00:36:12;6.00;;;6.00;;
2896;SDS011;1458;49.728;9.228;2022-08-24T00:38:39;5.90;;;5.90;;
2896;SDS011;1458;49.728;9.228;2022-08-24T00:41:07;5.90;;;5.90;;
2896;SDS011;1458;49.728;9.228;2022-08-24T00:43:35;6.20;;;6.20;;
2896;SDS011;1458;49.728;9.228;2022-08-24T00:46:09;6.60;;;6.60;;
2896;SDS011;1458;49.728;9.228;2022-08-24T00:48:44;6.20;;;6.20;;
2896;SDS011;1458;49.728;9.228;2022-08-24T00:51:15;6.00;;;6.00;;
2896;SDS011;1458;49.728;9.228;2022-08-24T00:53:49;5.60;;;5.60;;
2896;SDS011;1458;49.728;9.228;2022-08-24T00:56:25;5.60;;;5.60;;
2896;SDS011;1458;49.728;9.228;2022-08-24T00:59:01;6.00;;;6.00;;
2896;SDS011;1458;49.728;9.228;2022-08-24T01:01:39;5.80;;;5.80;;
2896;SDS011;1458;49.728;9.228;2022-08-24T01:04:09;5.60;;;5.60;;
2896;SDS011;1458;49.728;9.228;2022-08-24T01:06:46;5.30;;;5.30;;
2896;SDS011;1458;49.728;9.228;2022-08-24T01:09:14;5.10;;;5.10;;
2896;SDS011;1458;49.728;9.228;2022-08-24T01:11:42;5.20;;;5.20;;
2896;SDS011;1458;49.728;9.228;2022-08-24T01:14:10;5.00;;;5.00;;
2896;SDS011;1458;49.728;9.228;2022-08-24T01:16:41;5.00;;;5.00;;
2896;SDS011;1458;49.728;9.228;2022-08-24T01:19:30;4.40;;;4.40;;
2896;SDS011;1458;49.728;9.228;2022-08-24T01:22:32;4.90;;;4.90;;
2896;SDS011;1458;49.728;9.228;2022-08-24T01:25:20;4.60;;;4.60;;
2896;SDS011;1458;49.728;9.228;2022-08-24T01:27:49;4.70;;;4.70;;
2896;SDS011;1458;49.728;9.228;2022-08-24T01:30:20;4.70;;;4.70;;
2896;SDS011;1458;49.728;9.228;2022-08-24T01:32:51;5.00;;;5.00;;
2896;SDS011;1458;49.728;9.228;2022-08-24T01:35:24;4.60;;;4.60;;
2896;SDS011;1458;49.728;9.228;2022-08-24T01:37:53;4.47;;;4.47;;
2896;SDS011;1458;49.728;9.228;2022-08-24T01:40:30;3.60;;;3.60;;
2896;SDS011;1458;49.728;9.228;2022-08-24T01:43:03;4.30;;;4.30;;
2896;SDS011;1458;49.728;9.228;2022-08-24T01:45:33;4.30;;;4.30;;
2896;SDS011;1458;49.728;9.228;2022-08-24T01:48:02;4.40;;;4.40;;
2896;SDS011;1458;49.728;9.228;2022-08-24T01:50:31;4.30;;;4.30;;
2896;SDS011;1458;49.728;9.228;2022-08-24T01:52:59;4.30;;;4.30;;
2896;SDS011;1458;49.728;9.228;2022-08-24T01:55:32;4.70;;;4.70;;
2896;SDS011;1458;49.728;9.228;2022-08-24T01:58:01;4.50;;;4.50;;
2896;SDS011;1458;49.728;9.228;2022-08-24T02:00:29;4.30;;;4.30;;
2896;SDS011;1458;49.728;9.228;2022-08-24T02:02:58;4.30;;;4.30;;
2896;SDS011;1458;49.728;9.228;2022-08-24T02:05:27;4.60;;;4.60;;
2896;SDS011;1458;49.728;9.228;2022-08-24T02:07:57;4.30;;;4.30;;
2896;SDS011;1458;49.728;9.228;2022-08-24T02:10:25;4.20;;;4.20;;
2896;SDS011;1458;49.728;9.228;2022-08-24T02:12:55;4.00;;;4.00;;
2896;SDS011;1458;49.728;9.228;2022-08-24T02:15:29;3.90;;;3.90;;
2896;SDS011;1458;49.728;9.228;2022-08-24T02:18:02;4.20;;;4.20;;
2896;SDS011;1458;49.728;9.228;2022-08-24T02:20:31;4.10;;;4.10;;
2896;SDS011;1458;49.728;9.228;2022-08-24T02:23:03;4.10;;;4.10;;
2896;SDS011;1458;49.728;9.228;2022-08-24T02:25:33;3.70;;;3.70;;
2896;SDS011;1458;49.728;9.228;2022-08-24T02:28:02;4.00;;;4.00;;
2896;SDS011;1458;49.728;9.228;2022-08-24T02:30:30;3.80;;;3.80;;
2896;SDS011;1458;49.728;9.228;2022-08-24T02:32:58;3.80;;;3.80;;
2896;SDS011;1458;49.728;9.228;2022-08-24T02:35:27;3.90;;;3.90;;
2896;SDS011;1458;49.728;9.228;2022-08-24T02:37:56;4.00;;;4.00;;
2896;SDS011;1458;49.728;9.228;2022-08-24T02:40:25;3.80;;;3.80;;
2896;SDS011;1458;49.728;9.228;2022-08-24T02:42:54;3.70;;;3.70;;
2896;SDS011;1458;49.728;9.228;2022-08-24T02:45:23;3.70;;;3.70;;
2896;SDS011;1458;49.728;9.228;2022-08-24T02:47:51;3.53;;;3.53;;
2896;SDS011;1458;49.728;9.228;2022-08-24T02:50:21;3.60;;;3.60;;
2896;SDS011;1458;49.728;9.228;2022-08-24T02:52:50;3.93;;;3.93;;
2896;SDS011;1458;49.728;9.228;2022-08-24T02:55:19;3.90;;;3.90;;
2896;SDS011;1458;49.728;9.228;2022-08-24T02:57:50;3.60;;;3.60;;
2896;SDS011;1458;49.728;9.228;2022-08-24T03:00:18;3.60;;;3.60;;
2896;SDS011;1458;49.728;9.228;2022-08-24T03:02:50;3.60;;;3.60;;
2896;SDS011;1458;49.728;9.228;2022-08-24T03:05:20;3.10;;;3.10;;
2896;SDS011;1458;49.728;9.228;2022-08-24T03:07:48;2.90;;;2.90;;
2896;SDS011;1458;49.728;9.228;2022-08-24T03:10:18;2.90;;;2.90;;
2896;SDS011;1458;49.728;9.228;2022-08-24T03:12:46;3.00;;;3.00;;
2896;SDS011;1458;49.728;9.228;2022-08-24T03:15:16;2.80;;;2.80;;
2896;SDS011;1458;49.728;9.228;2022-08-24T03:17:46;2.60;;;2.60;;
2896;SDS011;1458;49.728;9.228;2022-08-24T03:20:17;2.80;;;2.80;;
2896;SDS011;1458;49.728;9.228;2022-08-24T03:22:47;2.60;;;2.60;;
2896;SDS011;1458;49.728;9.228;2022-08-24T03:25:16;2.53;;;2.53;;
2896;SDS011;1458;49.728;9.228;2022-08-24T03:27:49;2.40;;;2.40;;
2896;SDS011;1458;49.728;9.228;2022-08-24T03:30:17;2.40;;;2.40;;
2896;SDS011;1458;49.728;9.228;2022-08-24T03:32:47;2.37;;;2.37;;
2896;SDS011;1458;49.728;9.228;2022-08-24T03:35:18;2.40;;;2.40;;
2896;SDS011;1458;49.728;9.228;2022-08-24T03:37:47;2.20;;;2.20;;
2896;SDS011;1458;49.728;9.228;2022-08-24T03:40:18;2.30;;;2.30;;
2896;SDS011;1458;49.728;9.228;2022-08-24T03:42:47;2.20;;;2.20;;
2896;SDS011;1458;49.728;9.228;2022-08-24T03:45:15;2.10;;;2.10;;
2896;SDS011;1458;49.728;9.228;2022-08-24T03:47:44;2.40;;;2.40;;
2896;SDS011;1458;49.728;9.228;2022-08-24T03:50:15;2.20;;;2.20;;
2896;SDS011;1458;49.728;9.228;2022-08-24T03:52:49;2.20;;;2.20;;
2896;SDS011;1458;49.728;9.228;2022-08-24T03:55:19;2.27;;;2.27;;
2896;SDS011;1458;49.728;9.228;2022-08-24T03:57:48;2.40;;;2.40;;
2896;SDS011;1458;49.728;9.228;2022-08-24T04:00:16;2.30;;;2.30;;
2896;SDS011;1458;49.728;9.228;2022-08-24T04:02:53;2.20;;;2.20;;
2896;SDS011;1458;49.728;9.228;2022-08-24T04:05:26;2.10;;;2.10;;
2896;SDS011;1458;49.728;9.228;2022-08-24T04:07:54;2.30;;;2.30;;
2896;SDS011;1458;49.728;9.228;2022-08-24T04:10:23;2.50;;;2.50;;
2896;SDS011;1458;49.728;9.228;2022-08-24T04:12:52;2.97;;;2.97;;
2896;SDS011;1458;49.728;9.228;2022-08-24T04:15:25;2.73;;;2.73;;
2896;SDS011;1458;49.728;9.228;2022-08-24T04:17:56;2.10;;;2.10;;
2896;SDS011;1458;49.728;9.228;2022-08-24T04:20:25;2.67;;;2.67;;
2896;SDS011;1458;49.728;9.228;2022-08-24T04:22:55;2.80;;;2.80;;
2896;SDS011;1458;49.728;9.228;2022-08-24T04:25:25;2.50;;;2.50;;
2896;SDS011;1458;49.728;9.228;2022-08-24T04:27:53;3.27;;;3.27;;
2896;SDS011;1458;49.728;9.228;2022-08-24T04:30:21;2.60;;;2.60;;
2896;SDS011;1458;49.728;9.228;2022-08-24T04:33:02;2.40;;;2.40;;
2896;SDS011;1458;49.728;9.228;2022-08-24T04:35:35;2.50;;;2.50;;
2896;SDS011;1458;49.728;9.228;2022-08-24T04:38:06;2.20;;;2.20;;
2896;SDS011;1458;49.728;9.228;2022-08-24T04:40:37;2.30;;;2.30;;
2896;SDS011;1458;49.728;9.228;2022-08-24T04:43:07;1.90;;;1.90;;
2896;SDS011;1458;49.728;9.228;2022-08-24T04:45:38;2.10;;;2.10;;
2896;SDS011;1458;49.728;9.228;2022-08-24T04:48:07;2.10;;;2.10;;
2896;SDS011;1458;49.728;9.228;2022-08-24T04:50:38;1.90;;;1.90;;
2896;SDS011;1458;49.728;9.228;2022-08-24T04:53:08;2.00;;;2.00;;
2896;SDS011;1458;49.728;9.228;2022-08-24T04:55:44;2.10;;;2.10;;
2896;SDS011;1458;49.728;9.228;2022-08-24T04:58:18;1.70;;;1.70;;
2896;SDS011;1458;49.728;9.228;2022-08-24T05:00:46;2.10;;;2.10;;
2896;SDS011;1458;49.728;9.228;2022-08-24T05:03:17;2.00;;;2.00;;
2896;SDS011;1458;49.728;9.228;2022-08-24T05:05:47;2.20;;;2.20;;
2896;SDS011;1458;49.728;9.228;2022-08-24T05:08:18;2.20;;;2.20;;
2896;SDS011;1458;49.728;9.228;2022-08-24T05:10:46;2.20;;;2.20;;
2896;SDS011;1458;49.728;9.228;2022-08-24T05:13:18;2.17;;;2.17;;
2896;SDS011;1458;49.728;9.228;2022-08-24T05:15:46;2.00;;;2.00;;
2896;SDS011;1458;49.728;9.228;2022-08-24T05:18:15;1.90;;;1.90;;
2896;SDS011;1458;49.728;9.228;2022-08-24T05:20:45;2.00;;;2.00;;
2896;SDS011;1458;49.728;9.228;2022-08-24T05:23:14;2.00;;;2.00;;
2896;SDS011;1458;49.728;9.228;2022-08-24T05:25:44;2.00;;;2.00;;
2896;SDS011;1458;49.728;9.228;2022-08-24T05:28:13;1.90;;;1.90;;
2896;SDS011;1458;49.728;9.228;2022-08-24T05:30:41;1.90;;;1.90;;
2896;SDS011;1458;49.728;9.228;2022-08-24T05:33:11;1.70;;;1.70;;
2896;SDS011;1458;49.728;9.228;2022-08-24T05:35:39;2.10;;;2.10;;
2896;SDS011;1458;49.728;9.228;2022-08-24T05:38:09;1.60;;;1.60;;
2896;SDS011;1458;49.728;9.228;2022-08-24T05:40:36;2.10;;;2.10;;
2896;SDS011;1458;49.728;9.228;2022-08-24T05:43:06;1.80;;;1.80;;
2896;SDS011;1458;49.728;9.228;2022-08-24T05:45:33;2.60;;;2.60;;
2896;SDS011;1458;49.728;9.228;2022-08-24T05:48:02;2.93;;;2.93;;
2896;SDS011;1458;49.728;9.228;2022-08-24T05:51:06;3.57;;;3.57;;
2896;SDS011;1458;49.728;9.228;2022-08-24T05:53:47;3.70;;;3.70;;
2896;SDS011;1458;49.728;9.228;2022-08-24T05:56:16;4.27;;;4.27;;
2896;SDS011;1458;49.728;9.228;2022-08-24T05:58:46;4.37;;;4.37;;
2896;SDS011;1458;49.728;9.228;2022-08-24T06:01:15;4.80;;;4.80;;
2896;SDS011;1458;49.728;9.228;2022-08-24T06:03:46;4.60;;;4.60;;
2896;SDS011;1458;49.728;9.228;2022-08-24T06:06:16;4.63;;;4.63;;
2896;SDS011;1458;49.728;9.228;2022-08-24T06:08:47;4.40;;;4.40;;
2896;SDS011;1458;49.728;9.228;2022-08-24T06:11:19;4.90;;;4.90;;
2896;SDS011;1458;49.728;9.228;2022-08-24T06:13:50;5.40;;;5.40;;
2896;SDS011;1458;49.728;9.228;2022-08-24T06:16:20;5.40;;;5.40;;
2896;SDS011;1458;49.728;9.228;2022-08-24T06:18:51;5.60;;;5.60;;
2896;SDS011;1458;49.728;9.228;2022-08-24T06:21:22;6.10;;;6.10;;
2896;SDS011;1458;49.728;9.228;2022-08-24T06:23:56;6.20;;;6.20;;
2896;SDS011;1458;49.728;9.228;2022-08-24T06:26:25;6.60;;;6.50;;
2896;SDS011;1458;49.728;9.228;2022-08-24T06:29:12;6.20;;;6.20;;
2896;SDS011;1458;49.728;9.228;2022-08-24T06:31:43;6.80;;;6.70;;
2896;SDS011;1458;49.728;9.228;2022-08-24T06:34:15;7.50;;;7.40;;
2896;SDS011;1458;49.728;9.228;2022-08-24T06:36:44;8.93;;;8.73;;
2896;SDS011;1458;49.728;9.228;2022-08-24T06:39:14;9.77;;;9.57;;
2896;SDS011;1458;49.728;9.228;2022-08-24T06:41:43;10.10;;;9.90;;
2896;SDS011;1458;49.728;9.228;2022-08-24T06:44:18;10.20;;;10.00;;
2896;SDS011;1458;49.728;9.228;2022-08-24T06:46:53;10.90;;;10.60;;
2896;SDS011;1458;49.728;9.228;2022-08-24T06:49:21;10.70;;;10.40;;
2896;SDS011;1458;49.728;9.228;2022-08-24T06:51:49;10.53;;;10.23;;
2896;SDS011;1458;49.728;9.228;2022-08-24T06:54:19;10.70;;;10.40;;
2896;SDS011;1458;49.728;9.228;2022-08-24T06:56:48;10.00;;;9.80;;
2896;SDS011;1458;49.728;9.228;2022-08-24T06:59:15;10.33;;;10.07;;
2896;SDS011;1458;49.728;9.228;2022-08-24T07:01:44;10.80;;;10.50;;
2896;SDS011;1458;49.728;9.228;2022-08-24T07:04:13;10.90;;;10.60;;
2896;SDS011;1458;49.728;9.228;2022-08-24T07:07:06;11.43;;;11.13;;
2896;SDS011;1458;49.728;9.228;2022-08-24T07:09:36;11.70;;;11.40;;
2896;SDS011;1458;49.728;9.228;2022-08-24T07:12:05;11.17;;;10.87;;
2896;SDS011;1458;49.728;9.228;2022-08-24T07:14:33;11.20;;;10.90;;
2896;SDS011;1458;49.728;9.228;2022-08-24T07:17:01;11.03;;;10.73;;
2896;SDS011;1458;49.728;9.228;2022-08-24T07:19:30;11.50;;;11.20;;
2896;SDS011;1458;49.728;9.228;2022-08-24T07:21:58;11.20;;;10.90;;
2896;SDS011;1458;49.728;9.228;2022-08-24T07:24:26;10.70;;;10.40;;
2896;SDS011;1458;49.728;9.228;2022-08-24T07:26:56;11.10;;;10.80;;
2896;SDS011;1458;49.728;9.228;2022-08-24T07:29:25;11.80;;;11.50;;
2896;SDS011;1458;49.728;9.228;2022-08-24T07:31:52;11.37;;;11.07;;
2896;SDS011;1458;49.728;9.228;2022-08-24T07:34:33;12.00;;;11.60;;
2896;SDS011;1458;49.728;9.228;2022-08-24T07:37:01;11.80;;;11.50;;
2896;SDS011;1458;49.728;9.228;2022-08-24T07:39:30;11.83;;;11.53;;
2896;SDS011;1458;49.728;9.228;2022-08-24T07:41:59;11.70;;;11.40;;
2896;SDS011;1458;49.728;9.228;2022-08-24T07:44:26;11.30;;;11.00;;
2896;SDS011;1458;49.728;9.228;2022-08-24T07:46:55;11.60;;;11.30;;
2896;SDS011;1458;49.728;9.228;2022-08-24T07:49:22;12.40;;;12.00;;
2896;SDS011;1458;49.728;9.228;2022-08-24T07:51:50;12.20;;;11.80;;
2896;SDS011;1458;49.728;9.228;2022-08-24T07:54:18;12.00;;;11.60;;
2896;SDS011;1458;49.728;9.228;2022-08-24T07:56:46;12.40;;;12.00;;
2896;SDS011;1458;49.728;9.228;2022-08-24T07:59:16;12.70;;;12.30;;
2896;SDS011;1458;49.728;9.228;2022-08-24T08:01:43;12.43;;;12.03;;
2896;SDS011;1458;49.728;9.228;2022-08-24T08:04:11;12.80;;;12.40;;
2896;SDS011;1458;49.728;9.228;2022-08-24T08:06:40;12.83;;;12.43;;
2896;SDS011;1458;49.728;9.228;2022-08-24T08:09:08;12.80;;;12.40;;
2896;SDS011;1458;49.728;9.228;2022-08-24T08:11:36;13.10;;;12.70;;
2896;SDS011;1458;49.728;9.228;2022-08-24T08:14:03;13.30;;;12.90;;
2896;SDS011;1458;49.728;9.228;2022-08-24T08:16:32;13.70;;;13.20;;
2896;SDS011;1458;49.728;9.228;2022-08-24T08:19:00;13.30;;;12.80;;
2896;SDS011;1458;49.728;9.228;2022-08-24T08:21:27;13.40;;;12.90;;
2896;SDS011;1458;49.728;9.228;2022-08-24T08:24:28;13.37;;;12.87;;
2896;SDS011;1458;49.728;9.228;2022-08-24T08:26:56;12.77;;;12.37;;
2896;SDS011;1458;49.728;9.228;2022-08-24T08:29:26;12.20;;;11.80;;
2896;SDS011;1458;49.728;9.228;2022-08-24T08:31:58;13.20;;;12.80;;
2896;SDS011;1458;49.728;9.228;2022-08-24T08:34:26;12.30;;;11.90;;
2896;SDS011;1458;49.728;9.228;2022-08-24T08:36:56;12.50;;;12.10;;
2896;SDS011;1458;49.728;9.228;2022-08-24T08:39:24;14.03;;;13.53;;
2896;SDS011;1458;49.728;9.228;2022-08-24T08:45:06;13.43;;;13.00;;
2896;SDS011;1458;49.728;9.228;2022-08-24T08:47:56;13.83;;;13.33;;
2896;SDS011;1458;49.728;9.228;2022-08-24T08:54:28;13.70;;;13.20;;
2896;SDS011;1458;49.728;9.228;2022-08-24T08:57:12;14.20;;;13.70;;
2896;SDS011;1458;49.728;9.228;2022-08-24T08:59:59;13.93;;;13.43;;
2896;SDS011;1458;49.728;9.228;2022-08-24T09:02:59;13.33;;;12.93;;
2896;SDS011;1458;49.728;9.228;2022-08-24T09:06:33;13.70;;;13.20;;
2896;SDS011;1458;49.728;9.228;2022-08-24T09:09:34;13.77;;;13.27;;
2896;SDS011;1458;49.728;9.228;2022-08-24T09:12:23;13.50;;;13.00;;
2896;SDS011;1458;49.728;9.228;2022-08-24T09:18:11;14.17;;;13.67;;
2896;SDS011;1458;49.728;9.228;2022-08-24T09:23:51;14.03;;;13.53;;
2896;SDS011;1458;49.728;9.228;2022-08-24T09:26:45;13.77;;;13.27;;
2896;SDS011;1458;49.728;9.228;2022-08-24T09:29:26;13.47;;;12.97;;
2896;SDS011;1458;49.728;9.228;2022-08-24T09:32:26;12.87;;;12.47;;
2896;SDS011;1458;49.728;9.228;2022-08-24T09:35:06;14.10;;;13.60;;
2896;SDS011;1458;49.728;9.228;2022-08-24T09:37:52;14.07;;;13.57;;
2896;SDS011;1458;49.728;9.228;2022-08-24T09:40:30;14.10;;;13.60;;
2896;SDS011;1458;49.728;9.228;2022-08-24T09:43:12;14.50;;;14.00;;
2896;SDS011;1458;49.728;9.228;2022-08-24T09:53:02;13.73;;;13.23;;
2896;SDS011;1458;49.728;9.228;2022-08-24T09:56:17;13.80;;;13.30;;
2896;SDS011;1458;49.728;9.228;2022-08-24T09:59:18;14.60;;;14.00;;
2896;SDS011;1458;49.728;9.228;2022-08-24T10:02:08;15.20;;;14.60;;
2896;SDS011;1458;49.728;9.228;2022-08-24T10:05:02;14.70;;;14.20;;
2896;SDS011;1458;49.728;9.228;2022-08-24T10:07:40;14.50;;;14.00;;
2896;SDS011;1458;49.728;9.228;2022-08-24T10:10:19;14.80;;;14.30;;
2896;SDS011;1458;49.728;9.228;2022-08-24T10:13:02;15.23;;;14.63;;
2896;SDS011;1458;49.728;9.228;2022-08-24T10:15:44;14.40;;;13.90;;
2896;SDS011;1458;49.728;9.228;2022-08-24T10:18:42;14.20;;;13.70;;
2896;SDS011;1458;49.728;9.228;2022-08-24T10:21:28;14.80;;;14.30;;
2896;SDS011;1458;49.728;9.228;2022-08-24T10:24:20;14.37;;;13.87;;
2896;SDS011;1458;49.728;9.228;2022-08-24T10:27:19;14.53;;;14.03;;
2896;SDS011;1458;49.728;9.228;2022-08-24T10:30:08;15.20;;;14.60;;
2896;SDS011;1458;49.728;9.228;2022-08-24T10:33:18;15.20;;;14.60;;
2896;SDS011;1458;49.728;9.228;2022-08-24T10:38:51;15.00;;;14.40;;
2896;SDS011;1458;49.728;9.228;2022-08-24T10:42:20;14.50;;;14.00;;
2896;SDS011;1458;49.728;9.228;2022-08-24T10:45:43;15.00;;;14.40;;
2896;SDS011;1458;49.728;9.228;2022-08-24T10:49:10;14.37;;;13.87;;
2896;SDS011;1458;49.728;9.228;2022-08-24T10:55:44;15.13;;;14.53;;
2896;SDS011;1458;49.728;9.228;2022-08-24T10:58:22;14.47;;;13.97;;
2896;SDS011;1458;49.728;9.228;2022-08-24T11:01:19;15.50;;;14.90;;
2896;SDS011;1458;49.728;9.228;2022-08-24T11:03:56;14.70;;;14.20;;
2896;SDS011;1458;49.728;9.228;2022-08-24T11:06:31;14.70;;;14.20;;
2896;SDS011;1458;49.728;9.228;2022-08-24T11:09:04;14.73;;;14.23;;
2896;SDS011;1458;49.728;9.228;2022-08-24T11:11:36;15.03;;;14.43;;
2896;SDS011;1458;49.728;9.228;2022-08-24T11:14:08;15.07;;;14.47;;
2896;SDS011;1458;49.728;9.228;2022-08-24T11:16:50;15.47;;;14.87;;
2896;SDS011;1458;49.728;9.228;2022-08-24T11:19:28;15.20;;;14.60;;
2896;SDS011;1458;49.728;9.228;2022-08-24T11:21:59;15.00;;;14.40;;
2896;SDS011;1458;49.728;9.228;2022-08-24T11:24:36;14.87;;;14.27;;
2896;SDS011;1458;49.728;9.228;2022-08-24T11:27:16;15.67;;;15.07;;
2896;SDS011;1458;49.728;9.228;2022-08-24T11:29:55;15.10;;;14.50;;
2896;SDS011;1458;49.728;9.228;2022-08-24T11:32:29;15.13;;;14.53;;
2896;SDS011;1458;49.728;9.228;2022-08-24T11:35:05;15.00;;;14.40;;
2896;SDS011;1458;49.728;9.228;2022-08-24T11:37:42;15.37;;;14.77;;
2896;SDS011;1458;49.728;9.228;2022-08-24T11:40:10;15.50;;;14.90;;
2896;SDS011;1458;49.728;9.228;2022-08-24T11:42:51;15.40;;;14.80;;
2896;SDS011;1458;49.728;9.228;2022-08-24T11:45:35;15.10;;;14.50;;
2896;SDS011;1458;49.728;9.228;2022-08-24T11:48:14;15.00;;;14.40;;
2896;SDS011;1458;49.728;9.228;2022-08-24T11:50:55;14.90;;;14.30;;
2896;SDS011;1458;49.728;9.228;2022-08-24T11:53:37;14.53;;;13.93;;
2896;SDS011;1458;49.728;9.228;2022-08-24T11:56:16;14.60;;;14.00;;
2896;SDS011;1458;49.728;9.228;2022-08-24T11:58:52;14.47;;;13.97;;
2896;SDS011;1458;49.728;9.228;2022-08-24T12:01:27;15.23;;;14.63;;
2896;SDS011;1458;49.728;9.228;2022-08-24T12:04:08;14.70;;;14.20;;
2896;SDS011;1458;49.728;9.228;2022-08-24T12:06:54;14.30;;;13.80;;
2896;SDS011;1458;49.728;9.228;2022-08-24T12:09:31;14.60;;;14.10;;
2896;SDS011;1458;49.728;9.228;2022-08-24T12:12:33;14.80;;;14.30;;
2896;SDS011;1458;49.728;9.228;2022-08-24T12:15:08;14.80;;;14.20;;
2896;SDS011;1458;49.728;9.228;2022-08-24T12:17:43;14.67;;;14.17;;
2896;SDS011;1458;49.728;9.228;2022-08-24T12:20:21;14.53;;;14.03;;
2896;SDS011;1458;49.728;9.228;2022-08-24T12:22:57;13.80;;;13.30;;
2896;SDS011;1458;49.728;9.228;2022-08-24T12:25:29;14.33;;;13.83;;
2896;SDS011;1458;49.728;9.228;2022-08-24T12:28:19;14.63;;;14.03;;
2896;SDS011;1458;49.728;9.228;2022-08-24T12:30:51;14.53;;;14.00;;
2896;SDS011;1458;49.728;9.228;2022-08-24T12:33:29;14.83;;;14.23;;
2896;SDS011;1458;49.728;9.228;2022-08-24T12:36:00;14.77;;;14.20;;
2896;SDS011;1458;49.728;9.228;2022-08-24T12:38:40;15.00;;;14.40;;
2896;SDS011;1458;49.728;9.228;2022-08-24T12:41:13;14.70;;;14.10;;
2896;SDS011;1458;49.728;9.228;2022-08-24T12:43:47;15.00;;;14.40;;
2896;SDS011;1458;49.728;9.228;2022-08-24T12:46:20;14.50;;;14.00;;
2896;SDS011;1458;49.728;9.228;2022-08-24T12:48:52;15.30;;;14.70;;
2896;SDS011;1458;49.728;9.228;2022-08-24T12:51:25;15.17;;;14.57;;
2896;SDS011;1458;49.728;9.228;2022-08-24T12:54:11;15.00;;;14.40;;
2896;SDS011;1458;49.728;9.228;2022-08-24T12:57:02;15.23;;;14.63;;
2896;SDS011;1458;49.728;9.228;2022-08-24T12:59:46;15.90;;;15.20;;
2896;SDS011;1458;49.728;9.228;2022-08-24T13:02:26;14.80;;;14.20;;
2896;SDS011;1458;49.728;9.228;2022-08-24T13:05:04;15.03;;;14.43;;
2896;SDS011;1458;49.728;9.228;2022-08-24T13:07:38;15.20;;;14.60;;
2896;SDS011;1458;49.728;9.228;2022-08-24T13:10:14;15.57;;;14.97;;
2896;SDS011;1458;49.728;9.228;2022-08-24T13:15:53;14.90;;;14.30;;
2896;SDS011;1458;49.728;9.228;2022-08-24T13:25:20;14.57;;;14.07;;
2896;SDS011;1458;49.728;9.228;2022-08-24T13:28:26;14.97;;;14.37;;
2896;SDS011;1458;49.728;9.228;2022-08-24T13:33:58;14.00;;;13.50;;
2896;SDS011;1458;49.728;9.228;2022-08-24T13:37:13;14.37;;;13.87;;
2896;SDS011;1458;49.728;9.228;2022-08-24T13:42:45;14.30;;;13.80;;
2896;SDS011;1458;49.728;9.228;2022-08-24T13:45:33;14.60;;;14.00;;
2896;SDS011;1458;49.728;9.228;2022-08-24T13:48:19;14.73;;;14.13;;
2896;SDS011;1458;49.728;9.228;2022-08-24T13:51:10;14.10;;;13.60;;
2896;SDS011;1458;49.728;9.228;2022-08-24T13:53:54;14.43;;;13.83;;
2896;SDS011;1458;49.728;9.228;2022-08-24T13:56:37;14.47;;;13.87;;
2896;SDS011;1458;49.728;9.228;2022-08-24T13:59:35;14.10;;;13.60;;
2896;SDS011;1458;49.728;9.228;2022-08-24T14:02:34;14.60;;;14.00;;
2896;SDS011;1458;49.728;9.228;2022-08-24T14:05:23;14.20;;;13.70;;
2896;SDS011;1458;49.728;9.228;2022-08-24T14:08:05;13.70;;;13.20;;
2896;SDS011;1458;49.728;9.228;2022-08-24T14:10:53;14.00;;;13.50;;
2896;SDS011;1458;49.728;9.228;2022-08-24T14:13:51;13.80;;;13.30;;
2896;SDS011;1458;49.728;9.228;2022-08-24T14:16:34;13.60;;;13.10;;
2896;SDS011;1458;49.728;9.228;2022-08-24T14:19:35;14.20;;;13.70;;
2896;SDS011;1458;49.728;9.228;2022-08-24T14:22:16;14.10;;;13.60;;
2896;SDS011;1458;49.728;9.228;2022-08-24T14:25:00;14.07;;;13.57;;
2896;SDS011;1458;49.728;9.228;2022-08-24T14:27:43;14.13;;;13.63;;
2896;SDS011;1458;49.728;9.228;2022-08-24T14:33:23;13.97;;;13.47;;
2896;SDS011;1458;49.728;9.228;2022-08-24T14:38:54;14.17;;;13.67;;
2896;SDS011;1458;49.728;9.228;2022-08-24T14:44:47;14.17;;;13.67;;
2896;SDS011;1458;49.728;9.228;2022-08-24T14:47:30;14.10;;;13.60;;
2896;SDS011;1458;49.728;9.228;2022-08-24T14:50:11;14.07;;;13.57;;
2896;SDS011;1458;49.728;9.228;2022-08-24T14:52:53;14.30;;;13.80;;
2896;SDS011;1458;49.728;9.228;2022-08-24T14:55:37;14.20;;;13.70;;
2896;SDS011;1458;49.728;9.228;2022-08-24T14:58:25;14.77;;;14.17;;
2896;SDS011;1458;49.728;9.228;2022-08-24T15:04:22;14.63;;;14.03;;
2896;SDS011;1458;49.728;9.228;2022-08-24T15:07:20;14.40;;;13.90;;
2896;SDS011;1458;49.728;9.228;2022-08-24T15:09:52;14.63;;;14.03;;
2896;SDS011;1458;49.728;9.228;2022-08-24T15:15:11;13.93;;;13.43;;
2896;SDS011;1458;49.728;9.228;2022-08-24T15:17:51;14.20;;;13.70;;
2896;SDS011;1458;49.728;9.228;2022-08-24T15:20:31;14.10;;;13.60;;
2896;SDS011;1458;49.728;9.228;2022-08-24T15:23:14;14.03;;;13.53;;
2896;SDS011;1458;49.728;9.228;2022-08-24T15:25:49;13.93;;;13.43;;
2896;SDS011;1458;49.728;9.228;2022-08-24T15:28:22;14.70;;;14.10;;
2896;SDS011;1458;49.728;9.228;2022-08-24T15:30:55;14.00;;;13.50;;
2896;SDS011;1458;49.728;9.228;2022-08-24T15:33:25;14.87;;;14.27;;
2896;SDS011;1458;49.728;9.228;2022-08-24T15:36:11;14.97;;;14.37;;
2896;SDS011;1458;49.728;9.228;2022-08-24T15:38:42;14.70;;;14.20;;
2896;SDS011;1458;49.728;9.228;2022-08-24T15:41:11;14.53;;;14.03;;
2896;SDS011;1458;49.728;9.228;2022-08-24T15:43:43;14.90;;;14.30;;
2896;SDS011;1458;49.728;9.228;2022-08-24T15:46:17;14.97;;;14.37;;
2896;SDS011;1458;49.728;9.228;2022-08-24T15:48:48;15.00;;;14.40;;
2896;SDS011;1458;49.728;9.228;2022-08-24T15:51:28;14.40;;;13.90;;
2896;SDS011;1458;49.728;9.228;2022-08-24T15:54:12;14.00;;;13.50;;
2896;SDS011;1458;49.728;9.228;2022-08-24T15:56:55;14.33;;;13.83;;
2896;SDS011;1458;49.728;9.228;2022-08-24T15:59:26;14.80;;;14.20;;
2896;SDS011;1458;49.728;9.228;2022-08-24T16:02:16;14.10;;;13.60;;
2896;SDS011;1458;49.728;9.228;2022-08-24T16:04:58;14.57;;;13.97;;
2896;SDS011;1458;49.728;9.228;2022-08-24T16:08:03;14.50;;;13.90;;
2896;SDS011;1458;49.728;9.228;2022-08-24T16:10:41;14.60;;;14.00;;
2896;SDS011;1458;49.728;9.228;2022-08-24T16:13:12;13.80;;;13.30;;
2896;SDS011;1458;49.728;9.228;2022-08-24T16:15:50;14.83;;;14.23;;
2896;SDS011;1458;49.728;9.228;2022-08-24T16:18:40;14.83;;;14.23;;
2896;SDS011;1458;49.728;9.228;2022-08-24T16:21:14;14.60;;;14.00;;
2896;SDS011;1458;49.728;9.228;2022-08-24T16:23:52;14.97;;;14.37;;
2896;SDS011;1458;49.728;9.228;2022-08-24T16:26:26;14.60;;;14.00;;
2896;SDS011;1458;49.728;9.228;2022-08-24T16:28:56;14.00;;;13.50;;
2896;SDS011;1458;49.728;9.228;2022-08-24T16:31:47;13.93;;;13.43;;
2896;SDS011;1458;49.728;9.228;2022-08-24T16:34:26;14.70;;;14.10;;
2896;SDS011;1458;49.728;9.228;2022-08-24T16:36:57;13.70;;;13.20;;
2896;SDS011;1458;49.728;9.228;2022-08-24T16:39:25;14.10;;;13.60;;
2896;SDS011;1458;49.728;9.228;2022-08-24T16:41:54;14.07;;;13.57;;
2896;SDS011;1458;49.728;9.228;2022-08-24T16:44:25;13.17;;;12.70;;
2896;SDS011;1458;49.728;9.228;2022-08-24T16:46:58;13.57;;;13.07;;
2896;SDS011;1458;49.728;9.228;2022-08-24T16:49:27;13.63;;;13.13;;
2896;SDS011;1458;49.728;9.228;2022-08-24T16:51:56;14.43;;;13.93;;